METAR Data
IDs: Format: Raw Decoded Include TAF

Data at: 2243 UTC 20 Nov 2018

KBBD 202235Z AUTO 09005KT 10SM CLR 14/M02 A3028 RMK AO2
KBBD 202215Z AUTO 07007KT 10SM CLR 14/M02 A3028 RMK AO2
KBBD 202155Z AUTO 05005KT 10SM CLR 14/M02 A3029 RMK AO2
KBBD 202135Z AUTO 08007KT 10SM CLR 14/M02 A3029 RMK AO2
KBBD 202115Z AUTO 13003KT 10SM CLR 14/M02 A3029 RMK AO2
KBBD 202055Z AUTO VRB05KT 9SM CLR 13/M03 A3030 RMK AO2
KBBD 202035Z AUTO VRB03KT 3SM HZ CLR 14/M02 A3030 RMK AO2
KBBD 202015Z AUTO VRB06KT 10SM CLR 13/M02 A3031 RMK AO2
KBBD 201955Z AUTO VRB04G12KT 10SM CLR 13/M02 A3032 RMK AO2
KBBD 201935Z AUTO VRB05KT 10SM CLR 13/M02 A3033 RMK AO2
KBBD 201915Z AUTO 08007KT 10SM CLR 12/M02 A3034 RMK AO2
KBBD 201855Z AUTO 09005KT 10SM CLR 12/M01 A3035 RMK AO2
KBBD 201835Z AUTO 05006KT 10SM CLR 12/M00 A3035 RMK AO2
KBBD 201815Z AUTO VRB06KT 10SM CLR 11/00 A3037 RMK AO2
KBBD 201755Z AUTO VRB05KT 10SM CLR 11/00 A3038 RMK AO2
KBBD 201735Z AUTO 06005KT 10SM CLR 11/01 A3039 RMK AO2
KBBD 201715Z AUTO 03006G11KT 10SM CLR 10/01 A3039 RMK AO2
KBBD 201655Z AUTO 04009KT 10SM CLR 09/01 A3039 RMK AO2
KBBD 201635Z AUTO VRB05G12KT 10SM CLR 09/02 A3040 RMK AO2
KBBD 201615Z AUTO 04007KT 10SM CLR 08/02 A3040 RMK AO2
KBBD 201555Z AUTO 04005KT 10SM CLR 08/02 A3041 RMK AO2
KBBD 201535Z AUTO 04007KT 10SM CLR 07/02 A3041 RMK AO2
KBBD 201515Z AUTO 04006KT 10SM CLR 07/02 A3040 RMK AO2
KBBD 201455Z AUTO 36004KT 10SM CLR 06/03 A3039 RMK AO2
KBBD 201435Z AUTO 36005KT 10SM CLR 04/02 A3038 RMK AO2
KBBD 201415Z AUTO 34005KT 10SM CLR 03/02 A3037 RMK AO2
KBBD 201355Z AUTO 35006KT 9SM CLR 02/01 A3036 RMK AO2
KBBD 201335Z AUTO 35008KT 9SM CLR 01/00 A3035 RMK AO2
KBBD 201315Z AUTO 35007KT 9SM CLR 00/M00 A3035 RMK AO2
KBBD 201255Z AUTO 34007KT 10SM CLR 01/00 A3034 RMK AO2
KBBD 201235Z AUTO 34006KT 10SM CLR 00/M00 A3034 RMK AO2
KBBD 201215Z AUTO 34006KT 7SM CLR 00/M00 A3033 RMK AO2
KBBD 201155Z AUTO 32004KT 9SM CLR 00/M00 A3032 RMK AO2
KBBD 201135Z AUTO 36005KT 10SM CLR 00/M00 A3031 RMK AO2
KBBD 201115Z AUTO 36007KT 10SM CLR 01/00 A3031 RMK AO2
KBBD 201055Z AUTO 36005KT 9SM CLR 00/M00 A3031 RMK AO2
KBBD 201035Z AUTO 36008KT 8SM CLR 01/01 A3030 RMK AO2
KBBD 201015Z AUTO 36007KT 10SM CLR 01/01 A3031 RMK AO2
KBBD 200955Z AUTO 01006KT 9SM CLR 02/01 A3030 RMK AO2
KBBD 200935Z AUTO 36006KT 9SM CLR 02/01 A3029 RMK AO2
KBBD 200915Z AUTO 35006KT 10SM CLR 01/01 A3029 RMK AO2
KBBD 200855Z AUTO 35005KT 10SM CLR 02/01 A3029 RMK AO2
KBBD 200835Z AUTO 36005KT 10SM CLR 02/01 A3029 RMK AO2
KBBD 200815Z AUTO 36006KT 10SM CLR 03/02 A3029 RMK AO2
KBBD 200755Z AUTO 01004KT 10SM CLR 04/03 A3029 RMK AO2
KBBD 200735Z AUTO 05003KT 10SM CLR 04/03 A3029 RMK AO2
KBBD 200715Z AUTO 00000KT 10SM CLR 04/02 A3028 RMK AO2
KBBD 200655Z AUTO 34005KT 10SM CLR 04/02 A3027 RMK AO2
KBBD 200635Z AUTO 35005KT 10SM CLR 04/02 A3027 RMK AO2
KBBD 200610Z AUTO 33005KT 10SM CLR 04/02 A3027 RMK AO2
KBBD 200555Z AUTO 35005KT 10SM CLR 04/03 A3027 RMK AO2
KBBD 200535Z AUTO 01006KT 10SM CLR 05/02 A3027 RMK AO2
KBBD 200515Z AUTO 35006KT 10SM CLR 05/03 A3027 RMK AO2
KBBD 200455Z AUTO 36008KT 10SM CLR 05/02 A3027 RMK AO2
KBBD 200435Z AUTO 36007KT 10SM CLR 05/02 A3026 RMK AO2
KBBD 200415Z AUTO 36008KT 10SM FEW026 FEW034 FEW044 05/03 A3026 RMK AO2
KBBD 200355Z AUTO 35006KT 10SM FEW046 FEW085 06/03 A3025 RMK AO2
KBBD 200335Z AUTO 34005KT 10SM FEW080 05/03 A3025 RMK AO2
KBBD 200315Z AUTO 34005KT 10SM FEW080 06/03 A3023 RMK AO2
KBBD 200255Z AUTO 33005KT 10SM FEW085 06/04 A3023 RMK AO2
KBBD 200235Z AUTO 33005KT 10SM FEW085 07/04 A3022 RMK AO2
KBBD 200215Z AUTO 33004KT 10SM CLR 08/04 A3022 RMK AO2
KBBD 200155Z AUTO 33003KT 10SM FEW025 SCT034 09/04 A3021 RMK AO2
KBBD 200135Z AUTO 35004KT 10SM BKN024 BKN034 09/04 A3021 RMK AO2
KBBD 200115Z AUTO 35004KT 10SM OVC024 10/05 A3021 RMK AO2
KBBD 200055Z AUTO 36004KT 10SM OVC025 10/05 A3020 RMK AO2
KBBD 200035Z AUTO 36005KT 10SM OVC025 11/05 A3019 RMK AO2
KBBD 200015Z AUTO 35005KT 10SM OVC025 11/04 A3019 RMK AO2
KBBD 192355Z AUTO 35005KT 10SM OVC025 11/04 A3018 RMK AO2
KBBD 192335Z AUTO 35005KT 10SM OVC025 11/04 A3018 RMK AO2
KBBD 192315Z AUTO 36005KT 10SM OVC023 11/05 A3017 RMK AO2
KBBD 192255Z AUTO 00000KT 10SM BKN023 BKN031 12/04 A3017 RMK AO2
KBBD 192235Z AUTO 33004KT 10SM FEW021 FEW031 12/04 A3016 RMK AO2
KBBD 192215Z AUTO 00000KT 10SM BKN020 12/04 A3015 RMK AO2
KBBD 192155Z AUTO 05003KT 10SM BKN019 11/04 A3015 RMK AO2
KBBD 192135Z AUTO 00000KT 10SM OVC018 11/04 A3015 RMK AO2
KBBD 192115Z AUTO 00000KT 10SM BKN020 OVC033 11/03 A3015 RMK AO2
KBBD 192055Z AUTO 00000KT 10SM SCT021 OVC033 11/03 A3016 RMK AO2
KBBD 192035Z AUTO 00000KT 10SM FEW021 OVC033 10/03 A3016 RMK AO2
KBBD 192015Z AUTO VRB03KT 10SM OVC033 10/03 A3016 RMK AO2
KBBD 191955Z AUTO 00000KT 10SM FEW020 OVC034 10/03 A3017 RMK AO2
KBBD 191935Z AUTO 00000KT 10SM FEW019 OVC033 09/02 A3018 RMK AO2
KBBD 191915Z AUTO 01005KT 10SM SCT019 OVC032 09/02 A3018 RMK AO2
KBBD 191855Z AUTO 01004KT 10SM BKN019 OVC030 09/02 A3019 RMK AO2
KBBD 191835Z AUTO 01005KT 10SM SCT020 OVC030 08/02 A3020 RMK AO2
KBBD 191815Z AUTO 04003KT 10SM BKN020 OVC031 08/01 A3021 RMK AO2
KBBD 191755Z AUTO 04004KT 10SM OVC019 08/01 A3022 RMK AO2
KBBD 191735Z AUTO 00000KT 10SM BKN019 OVC032 08/01 A3022 RMK AO2
KBBD 191715Z AUTO 07004KT 10SM OVC019 08/01 A3023 RMK AO2
KBBD 191655Z AUTO 00000KT 10SM BKN019 OVC032 07/00 A3024 RMK AO2
KBBD 191635Z AUTO 00000KT 10SM BKN020 OVC033 07/00 A3024 RMK AO2
KBBD 191615Z AUTO 04004KT 10SM SCT017 OVC033 07/00 A3023 RMK AO2
KBBD 191555Z AUTO 01003KT 10SM OVC017 06/M00 A3023 RMK AO2
KBBD 191535Z AUTO 04004KT 10SM OVC019 06/M00 A3023 RMK AO2
KBBD 191515Z AUTO 03005KT 10SM OVC018 06/M00 A3023 RMK AO2
KBBD 191455Z AUTO 00000KT 10SM OVC018 06/M00 A3022 RMK AO2
KBBD 191435Z AUTO 35004KT 10SM OVC019 05/M00 A3022 RMK AO2
KBBD 191415Z AUTO 03004KT 10SM OVC018 05/M00 A3022 RMK AO2
KBBD 191355Z AUTO 01005KT 10SM OVC017 05/M00 A3021 RMK AO2
KBBD 191335Z AUTO 34005KT 10SM OVC019 05/00 A3021 RMK AO2
KBBD 191315Z AUTO 00000KT 10SM OVC019 05/00 A3021 RMK AO2
KBBD 191255Z AUTO 00000KT 10SM OVC019 05/00 A3020 RMK AO2
KBBD 191235Z AUTO 04004KT 10SM OVC019 05/M00 A3019 RMK AO2
KBBD 191215Z AUTO 00000KT 10SM OVC017 05/M00 A3019 RMK AO2
KBBD 191155Z AUTO 35007KT 10SM OVC017 05/00 A3017 RMK AO2
KBBD 191135Z AUTO 34005KT 10SM OVC015 05/00 A3018 RMK AO2
KBBD 191115Z AUTO 36005KT 10SM OVC015 05/M00 A3017 RMK AO2
KBBD 191055Z AUTO 01004KT 10SM OVC015 05/M00 A3018 RMK AO2